sensor_id;sensor_type;location;lat;lon;timestamp;P1;durP1;ratioP1;P2;durP2;ratioP2
80115;SDS011;69423;47.608;19.366;2023-07-31T00:00:05;4.03;;;4.03;;
80115;SDS011;69423;47.608;19.366;2023-07-31T00:00:36;3.73;;;3.73;;
80115;SDS011;69423;47.608;19.366;2023-07-31T00:01:07;3.93;;;3.93;;
80115;SDS011;69423;47.608;19.366;2023-07-31T00:01:38;3.90;;;3.90;;
80115;SDS011;69423;47.608;19.366;2023-07-31T00:02:09;3.73;;;3.73;;
80115;SDS011;69423;47.608;19.366;2023-07-31T00:02:41;3.67;;;3.67;;
80115;SDS011;69423;47.608;19.366;2023-07-31T00:03:12;3.67;;;3.67;;
80115;SDS011;69423;47.608;19.366;2023-07-31T00:03:43;3.73;;;3.73;;
80115;SDS011;69423;47.608;19.366;2023-07-31T00:04:14;3.73;;;3.73;;
80115;SDS011;69423;47.608;19.366;2023-07-31T00:04:45;3.37;;;3.37;;
80115;SDS011;69423;47.608;19.366;2023-07-31T00:05:16;3.60;;;3.60;;
80115;SDS011;69423;47.608;19.366;2023-07-31T00:05:47;3.43;;;3.43;;
80115;SDS011;69423;47.608;19.366;2023-07-31T00:06:18;3.57;;;3.57;;
80115;SDS011;69423;47.608;19.366;2023-07-31T00:06:49;3.27;;;3.27;;
80115;SDS011;69423;47.608;19.366;2023-07-31T00:07:20;3.50;;;3.50;;
80115;SDS011;69423;47.608;19.366;2023-07-31T00:07:51;3.50;;;3.50;;
80115;SDS011;69423;47.608;19.366;2023-07-31T00:08:24;3.93;;;3.87;;
80115;SDS011;69423;47.608;19.366;2023-07-31T00:08:55;4.00;;;3.90;;
80115;SDS011;69423;47.608;19.366;2023-07-31T00:09:26;3.60;;;3.60;;
80115;SDS011;69423;47.608;19.366;2023-07-31T00:09:57;3.73;;;3.70;;
80115;SDS011;69423;47.608;19.366;2023-07-31T00:10:28;3.67;;;3.67;;
80115;SDS011;69423;47.608;19.366;2023-07-31T00:10:59;3.67;;;3.67;;
80115;SDS011;69423;47.608;19.366;2023-07-31T00:11:30;4.20;;;4.07;;
80115;SDS011;69423;47.608;19.366;2023-07-31T00:12:02;3.87;;;3.67;;
80115;SDS011;69423;47.608;19.366;2023-07-31T00:12:33;4.07;;;3.87;;
80115;SDS011;69423;47.608;19.366;2023-07-31T00:13:04;3.93;;;3.73;;
80115;SDS011;69423;47.608;19.366;2023-07-31T00:13:35;3.43;;;3.33;;
80115;SDS011;69423;47.608;19.366;2023-07-31T00:14:06;4.00;;;4.00;;
80115;SDS011;69423;47.608;19.366;2023-07-31T00:14:37;3.93;;;3.93;;
80115;SDS011;69423;47.608;19.366;2023-07-31T00:15:08;3.40;;;3.40;;
80115;SDS011;69423;47.608;19.366;2023-07-31T00:15:40;3.30;;;3.30;;
80115;SDS011;69423;47.608;19.366;2023-07-31T00:16:11;4.03;;;4.03;;
80115;SDS011;69423;47.608;19.366;2023-07-31T00:16:42;3.90;;;3.90;;
80115;SDS011;69423;47.608;19.366;2023-07-31T00:17:13;3.60;;;3.60;;
80115;SDS011;69423;47.608;19.366;2023-07-31T00:17:44;3.60;;;3.60;;
80115;SDS011;69423;47.608;19.366;2023-07-31T00:18:15;3.60;;;3.60;;
80115;SDS011;69423;47.608;19.366;2023-07-31T00:18:46;3.77;;;3.77;;
80115;SDS011;69423;47.608;19.366;2023-07-31T00:19:17;3.77;;;3.77;;
80115;SDS011;69423;47.608;19.366;2023-07-31T00:19:48;3.73;;;3.73;;
80115;SDS011;69423;47.608;19.366;2023-07-31T00:20:21;3.53;;;3.53;;
80115;SDS011;69423;47.608;19.366;2023-07-31T00:20:52;3.57;;;3.57;;
80115;SDS011;69423;47.608;19.366;2023-07-31T00:21:23;3.67;;;3.67;;
80115;SDS011;69423;47.608;19.366;2023-07-31T00:21:54;3.73;;;3.73;;
80115;SDS011;69423;47.608;19.366;2023-07-31T00:22:25;3.33;;;3.33;;
80115;SDS011;69423;47.608;19.366;2023-07-31T00:22:56;3.53;;;3.53;;
80115;SDS011;69423;47.608;19.366;2023-07-31T00:23:27;3.70;;;3.70;;
80115;SDS011;69423;47.608;19.366;2023-07-31T00:23:58;3.53;;;3.53;;
80115;SDS011;69423;47.608;19.366;2023-07-31T00:24:29;3.43;;;3.43;;
80115;SDS011;69423;47.608;19.366;2023-07-31T00:25:00;3.50;;;3.50;;
80115;SDS011;69423;47.608;19.366;2023-07-31T00:25:31;3.07;;;3.07;;
80115;SDS011;69423;47.608;19.366;2023-07-31T00:26:02;3.20;;;3.20;;
80115;SDS011;69423;47.608;19.366;2023-07-31T00:26:33;3.60;;;3.60;;
80115;SDS011;69423;47.608;19.366;2023-07-31T00:27:04;3.57;;;3.57;;
80115;SDS011;69423;47.608;19.366;2023-07-31T00:27:35;3.40;;;3.40;;
80115;SDS011;69423;47.608;19.366;2023-07-31T00:28:06;3.43;;;3.43;;
80115;SDS011;69423;47.608;19.366;2023-07-31T00:28:37;3.30;;;3.30;;
80115;SDS011;69423;47.608;19.366;2023-07-31T00:29:08;3.20;;;3.20;;
80115;SDS011;69423;47.608;19.366;2023-07-31T00:29:39;3.27;;;3.27;;
80115;SDS011;69423;47.608;19.366;2023-07-31T00:30:11;3.43;;;3.43;;
80115;SDS011;69423;47.608;19.366;2023-07-31T00:30:42;3.53;;;3.53;;
80115;SDS011;69423;47.608;19.366;2023-07-31T00:31:13;3.23;;;3.23;;
80115;SDS011;69423;47.608;19.366;2023-07-31T00:31:44;3.37;;;3.37;;
80115;SDS011;69423;47.608;19.366;2023-07-31T00:32:15;3.73;;;3.73;;
80115;SDS011;69423;47.608;19.366;2023-07-31T00:32:46;3.43;;;3.43;;
80115;SDS011;69423;47.608;19.366;2023-07-31T00:33:17;4.07;;;4.07;;
80115;SDS011;69423;47.608;19.366;2023-07-31T00:33:48;3.63;;;3.63;;
80115;SDS011;69423;47.608;19.366;2023-07-31T00:34:19;3.87;;;3.87;;
80115;SDS011;69423;47.608;19.366;2023-07-31T00:34:50;3.73;;;3.73;;
80115;SDS011;69423;47.608;19.366;2023-07-31T00:35:21;3.53;;;3.53;;
80115;SDS011;69423;47.608;19.366;2023-07-31T00:35:52;3.47;;;3.47;;
80115;SDS011;69423;47.608;19.366;2023-07-31T00:36:23;3.23;;;3.23;;
80115;SDS011;69423;47.608;19.366;2023-07-31T00:36:55;3.70;;;3.70;;
80115;SDS011;69423;47.608;19.366;2023-07-31T00:37:26;3.77;;;3.77;;
80115;SDS011;69423;47.608;19.366;2023-07-31T00:37:57;3.93;;;3.93;;
80115;SDS011;69423;47.608;19.366;2023-07-31T00:38:29;3.47;;;3.47;;
80115;SDS011;69423;47.608;19.366;2023-07-31T00:39:00;3.13;;;3.13;;
80115;SDS011;69423;47.608;19.366;2023-07-31T00:39:31;3.53;;;3.53;;
80115;SDS011;69423;47.608;19.366;2023-07-31T00:40:02;3.40;;;3.40;;
80115;SDS011;69423;47.608;19.366;2023-07-31T00:40:34;3.70;;;3.70;;
80115;SDS011;69423;47.608;19.366;2023-07-31T00:41:07;3.73;;;3.73;;
80115;SDS011;69423;47.608;19.366;2023-07-31T00:41:38;3.57;;;3.57;;
80115;SDS011;69423;47.608;19.366;2023-07-31T00:42:09;3.70;;;3.70;;
80115;SDS011;69423;47.608;19.366;2023-07-31T00:42:40;3.57;;;3.57;;
80115;SDS011;69423;47.608;19.366;2023-07-31T00:43:11;3.60;;;3.60;;
80115;SDS011;69423;47.608;19.366;2023-07-31T00:43:42;3.57;;;3.57;;
80115;SDS011;69423;47.608;19.366;2023-07-31T00:44:13;3.60;;;3.60;;
80115;SDS011;69423;47.608;19.366;2023-07-31T00:44:44;3.83;;;3.83;;
80115;SDS011;69423;47.608;19.366;2023-07-31T00:45:15;3.80;;;3.80;;
80115;SDS011;69423;47.608;19.366;2023-07-31T00:45:46;3.37;;;3.37;;
80115;SDS011;69423;47.608;19.366;2023-07-31T00:46:17;3.53;;;3.53;;
80115;SDS011;69423;47.608;19.366;2023-07-31T00:46:48;3.43;;;3.43;;
80115;SDS011;69423;47.608;19.366;2023-07-31T00:47:19;3.33;;;3.33;;
80115;SDS011;69423;47.608;19.366;2023-07-31T00:47:51;3.47;;;3.47;;
80115;SDS011;69423;47.608;19.366;2023-07-31T00:48:22;3.07;;;3.07;;
80115;SDS011;69423;47.608;19.366;2023-07-31T00:48:53;3.53;;;3.53;;
80115;SDS011;69423;47.608;19.366;2023-07-31T00:49:25;3.80;;;3.80;;
80115;SDS011;69423;47.608;19.366;2023-07-31T00:49:57;3.80;;;3.80;;
80115;SDS011;69423;47.608;19.366;2023-07-31T00:50:28;3.50;;;3.50;;
80115;SDS011;69423;47.608;19.366;2023-07-31T00:51:00;3.33;;;3.33;;
80115;SDS011;69423;47.608;19.366;2023-07-31T00:51:31;3.63;;;3.63;;
80115;SDS011;69423;47.608;19.366;2023-07-31T00:52:02;3.70;;;3.70;;
80115;SDS011;69423;47.608;19.366;2023-07-31T00:52:34;3.60;;;3.60;;
80115;SDS011;69423;47.608;19.366;2023-07-31T00:53:06;3.87;;;3.87;;
80115;SDS011;69423;47.608;19.366;2023-07-31T00:53:37;3.57;;;3.57;;
80115;SDS011;69423;47.608;19.366;2023-07-31T00:54:09;3.90;;;3.90;;
80115;SDS011;69423;47.608;19.366;2023-07-31T00:54:41;4.13;;;4.13;;
80115;SDS011;69423;47.608;19.366;2023-07-31T00:55:13;3.97;;;3.97;;
80115;SDS011;69423;47.608;19.366;2023-07-31T00:55:45;4.10;;;4.10;;
80115;SDS011;69423;47.608;19.366;2023-07-31T00:56:16;3.80;;;3.80;;
80115;SDS011;69423;47.608;19.366;2023-07-31T00:56:47;3.60;;;3.60;;
80115;SDS011;69423;47.608;19.366;2023-07-31T00:57:23;3.63;;;3.63;;
80115;SDS011;69423;47.608;19.366;2023-07-31T00:57:54;3.93;;;3.93;;
80115;SDS011;69423;47.608;19.366;2023-07-31T00:58:26;3.50;;;3.50;;
80115;SDS011;69423;47.608;19.366;2023-07-31T00:58:57;3.60;;;3.60;;
80115;SDS011;69423;47.608;19.366;2023-07-31T00:59:28;3.93;;;3.93;;
80115;SDS011;69423;47.608;19.366;2023-07-31T01:00:00;3.80;;;3.80;;
80115;SDS011;69423;47.608;19.366;2023-07-31T01:00:31;3.80;;;3.80;;
80115;SDS011;69423;47.608;19.366;2023-07-31T01:01:02;3.47;;;3.47;;
80115;SDS011;69423;47.608;19.366;2023-07-31T01:01:33;3.80;;;3.80;;
80115;SDS011;69423;47.608;19.366;2023-07-31T01:02:04;3.60;;;3.60;;
80115;SDS011;69423;47.608;19.366;2023-07-31T01:02:35;4.13;;;4.13;;
80115;SDS011;69423;47.608;19.366;2023-07-31T01:03:07;3.60;;;3.60;;
80115;SDS011;69423;47.608;19.366;2023-07-31T01:03:38;3.87;;;3.87;;
80115;SDS011;69423;47.608;19.366;2023-07-31T01:04:10;3.83;;;3.83;;
80115;SDS011;69423;47.608;19.366;2023-07-31T01:04:43;3.93;;;3.93;;
80115;SDS011;69423;47.608;19.366;2023-07-31T01:05:15;3.73;;;3.73;;
80115;SDS011;69423;47.608;19.366;2023-07-31T01:05:49;3.73;;;3.73;;
80115;SDS011;69423;47.608;19.366;2023-07-31T01:08:15;3.67;;;3.67;;
80115;SDS011;69423;47.608;19.366;2023-07-31T01:10:11;3.73;;;3.73;;
80115;SDS011;69423;47.608;19.366;2023-07-31T01:10:50;3.70;;;3.70;;
80115;SDS011;69423;47.608;19.366;2023-07-31T01:11:31;3.70;;;3.70;;
80115;SDS011;69423;47.608;19.366;2023-07-31T01:12:06;4.27;;;4.27;;
80115;SDS011;69423;47.608;19.366;2023-07-31T01:12:38;3.90;;;3.90;;
80115;SDS011;69423;47.608;19.366;2023-07-31T01:13:09;3.73;;;3.73;;
80115;SDS011;69423;47.608;19.366;2023-07-31T01:13:42;3.57;;;3.57;;
80115;SDS011;69423;47.608;19.366;2023-07-31T01:14:14;3.83;;;3.83;;
80115;SDS011;69423;47.608;19.366;2023-07-31T01:15:19;3.87;;;3.87;;
80115;SDS011;69423;47.608;19.366;2023-07-31T01:15:44;3.80;;;3.80;;
80115;SDS011;69423;47.608;19.366;2023-07-31T01:16:15;3.87;;;3.87;;
80115;SDS011;69423;47.608;19.366;2023-07-31T01:16:46;3.87;;;3.87;;
80115;SDS011;69423;47.608;19.366;2023-07-31T01:17:17;3.30;;;3.30;;
80115;SDS011;69423;47.608;19.366;2023-07-31T01:17:48;3.77;;;3.77;;
80115;SDS011;69423;47.608;19.366;2023-07-31T01:18:19;3.67;;;3.67;;
80115;SDS011;69423;47.608;19.366;2023-07-31T01:18:50;3.57;;;3.57;;
80115;SDS011;69423;47.608;19.366;2023-07-31T01:19:22;3.77;;;3.77;;
80115;SDS011;69423;47.608;19.366;2023-07-31T01:19:55;3.67;;;3.67;;
80115;SDS011;69423;47.608;19.366;2023-07-31T01:20:33;3.60;;;3.60;;
80115;SDS011;69423;47.608;19.366;2023-07-31T01:21:15;3.90;;;3.90;;
80115;SDS011;69423;47.608;19.366;2023-07-31T01:24:17;3.77;;;3.77;;
80115;SDS011;69423;47.608;19.366;2023-07-31T01:26:03;3.63;;;3.63;;
80115;SDS011;69423;47.608;19.366;2023-07-31T01:26:56;4.00;;;4.00;;
80115;SDS011;69423;47.608;19.366;2023-07-31T01:27:33;3.97;;;3.97;;
80115;SDS011;69423;47.608;19.366;2023-07-31T01:28:13;4.30;;;4.30;;
80115;SDS011;69423;47.608;19.366;2023-07-31T01:29:17;3.67;;;3.67;;
80115;SDS011;69423;47.608;19.366;2023-07-31T01:29:59;4.10;;;4.10;;
80115;SDS011;69423;47.608;19.366;2023-07-31T01:30:41;4.07;;;4.07;;
80115;SDS011;69423;47.608;19.366;2023-07-31T01:31:20;3.60;;;3.60;;
80115;SDS011;69423;47.608;19.366;2023-07-31T01:31:54;3.87;;;3.87;;
80115;SDS011;69423;47.608;19.366;2023-07-31T01:32:28;4.23;;;4.23;;
80115;SDS011;69423;47.608;19.366;2023-07-31T01:32:59;4.17;;;4.17;;
80115;SDS011;69423;47.608;19.366;2023-07-31T01:33:37;3.97;;;3.97;;
80115;SDS011;69423;47.608;19.366;2023-07-31T01:34:09;4.07;;;4.07;;
80115;SDS011;69423;47.608;19.366;2023-07-31T01:34:41;3.90;;;3.90;;
80115;SDS011;69423;47.608;19.366;2023-07-31T01:35:14;3.70;;;3.70;;
80115;SDS011;69423;47.608;19.366;2023-07-31T01:35:46;3.40;;;3.40;;
80115;SDS011;69423;47.608;19.366;2023-07-31T01:36:20;4.00;;;4.00;;
80115;SDS011;69423;47.608;19.366;2023-07-31T01:36:52;3.73;;;3.73;;
80115;SDS011;69423;47.608;19.366;2023-07-31T01:37:27;3.70;;;3.70;;
80115;SDS011;69423;47.608;19.366;2023-07-31T01:38:00;3.80;;;3.80;;
80115;SDS011;69423;47.608;19.366;2023-07-31T01:38:31;3.90;;;3.90;;
80115;SDS011;69423;47.608;19.366;2023-07-31T01:39:02;3.90;;;3.90;;
80115;SDS011;69423;47.608;19.366;2023-07-31T01:39:34;3.97;;;3.97;;
80115;SDS011;69423;47.608;19.366;2023-07-31T01:40:05;4.20;;;4.20;;
80115;SDS011;69423;47.608;19.366;2023-07-31T01:40:37;4.37;;;4.37;;
80115;SDS011;69423;47.608;19.366;2023-07-31T01:41:11;4.33;;;4.33;;
80115;SDS011;69423;47.608;19.366;2023-07-31T01:41:43;3.77;;;3.77;;
80115;SDS011;69423;47.608;19.366;2023-07-31T01:42:14;4.07;;;4.07;;
80115;SDS011;69423;47.608;19.366;2023-07-31T01:42:45;3.70;;;3.70;;
80115;SDS011;69423;47.608;19.366;2023-07-31T01:43:16;4.13;;;4.13;;
80115;SDS011;69423;47.608;19.366;2023-07-31T01:43:47;4.20;;;4.20;;
80115;SDS011;69423;47.608;19.366;2023-07-31T01:44:19;3.93;;;3.93;;
80115;SDS011;69423;47.608;19.366;2023-07-31T01:44:50;4.47;;;4.47;;
80115;SDS011;69423;47.608;19.366;2023-07-31T01:45:21;4.17;;;4.17;;
80115;SDS011;69423;47.608;19.366;2023-07-31T01:45:52;3.77;;;3.77;;
80115;SDS011;69423;47.608;19.366;2023-07-31T01:46:23;4.23;;;4.23;;
80115;SDS011;69423;47.608;19.366;2023-07-31T01:46:55;4.53;;;4.53;;
80115;SDS011;69423;47.608;19.366;2023-07-31T01:47:26;4.27;;;4.27;;
80115;SDS011;69423;47.608;19.366;2023-07-31T01:47:57;4.63;;;4.63;;
80115;SDS011;69423;47.608;19.366;2023-07-31T01:48:28;4.23;;;4.23;;
80115;SDS011;69423;47.608;19.366;2023-07-31T01:48:59;4.10;;;4.10;;
80115;SDS011;69423;47.608;19.366;2023-07-31T01:49:30;4.23;;;4.23;;
80115;SDS011;69423;47.608;19.366;2023-07-31T01:50:01;4.07;;;4.07;;
80115;SDS011;69423;47.608;19.366;2023-07-31T01:50:32;4.30;;;4.30;;
80115;SDS011;69423;47.608;19.366;2023-07-31T01:51:03;4.17;;;4.17;;
80115;SDS011;69423;47.608;19.366;2023-07-31T01:51:34;3.93;;;3.93;;
80115;SDS011;69423;47.608;19.366;2023-07-31T01:52:05;4.47;;;4.47;;
80115;SDS011;69423;47.608;19.366;2023-07-31T01:52:37;4.50;;;4.50;;
80115;SDS011;69423;47.608;19.366;2023-07-31T01:53:08;4.10;;;4.10;;
80115;SDS011;69423;47.608;19.366;2023-07-31T01:53:39;4.23;;;4.23;;
80115;SDS011;69423;47.608;19.366;2023-07-31T01:54:10;4.27;;;4.27;;
80115;SDS011;69423;47.608;19.366;2023-07-31T01:54:41;4.13;;;4.13;;
80115;SDS011;69423;47.608;19.366;2023-07-31T01:55:12;4.10;;;4.10;;
80115;SDS011;69423;47.608;19.366;2023-07-31T01:55:43;4.07;;;4.07;;
80115;SDS011;69423;47.608;19.366;2023-07-31T01:56:14;3.87;;;3.87;;
80115;SDS011;69423;47.608;19.366;2023-07-31T01:56:45;4.00;;;4.00;;
80115;SDS011;69423;47.608;19.366;2023-07-31T01:57:16;4.43;;;4.43;;
80115;SDS011;69423;47.608;19.366;2023-07-31T01:57:47;5.17;;;5.03;;
80115;SDS011;69423;47.608;19.366;2023-07-31T01:58:19;4.70;;;4.70;;
80115;SDS011;69423;47.608;19.366;2023-07-31T01:58:50;4.57;;;4.57;;
80115;SDS011;69423;47.608;19.366;2023-07-31T01:59:21;4.27;;;4.27;;
80115;SDS011;69423;47.608;19.366;2023-07-31T01:59:52;4.47;;;4.47;;
80115;SDS011;69423;47.608;19.366;2023-07-31T02:00:23;4.33;;;4.33;;
80115;SDS011;69423;47.608;19.366;2023-07-31T02:00:54;4.10;;;4.10;;
80115;SDS011;69423;47.608;19.366;2023-07-31T02:01:25;4.27;;;4.27;;
80115;SDS011;69423;47.608;19.366;2023-07-31T02:01:56;4.17;;;4.17;;
80115;SDS011;69423;47.608;19.366;2023-07-31T02:02:27;4.20;;;4.20;;
80115;SDS011;69423;47.608;19.366;2023-07-31T02:02:59;4.20;;;4.20;;
80115;SDS011;69423;47.608;19.366;2023-07-31T02:03:30;4.37;;;4.37;;
80115;SDS011;69423;47.608;19.366;2023-07-31T02:04:01;4.60;;;4.60;;
80115;SDS011;69423;47.608;19.366;2023-07-31T02:04:33;4.47;;;4.47;;
80115;SDS011;69423;47.608;19.366;2023-07-31T02:05:05;4.20;;;4.20;;
80115;SDS011;69423;47.608;19.366;2023-07-31T02:05:36;4.33;;;4.33;;
80115;SDS011;69423;47.608;19.366;2023-07-31T02:06:07;4.03;;;4.03;;
80115;SDS011;69423;47.608;19.366;2023-07-31T02:06:38;4.07;;;4.07;;
80115;SDS011;69423;47.608;19.366;2023-07-31T02:07:09;4.10;;;4.10;;
80115;SDS011;69423;47.608;19.366;2023-07-31T02:07:40;4.13;;;4.13;;
80115;SDS011;69423;47.608;19.366;2023-07-31T02:08:11;4.63;;;4.63;;
80115;SDS011;69423;47.608;19.366;2023-07-31T02:08:42;4.60;;;4.60;;
80115;SDS011;69423;47.608;19.366;2023-07-31T02:09:13;4.70;;;4.70;;
80115;SDS011;69423;47.608;19.366;2023-07-31T02:09:44;4.27;;;4.27;;
80115;SDS011;69423;47.608;19.366;2023-07-31T02:10:17;4.43;;;4.43;;
80115;SDS011;69423;47.608;19.366;2023-07-31T02:10:48;4.47;;;4.47;;
80115;SDS011;69423;47.608;19.366;2023-07-31T02:11:19;4.20;;;4.20;;
80115;SDS011;69423;47.608;19.366;2023-07-31T02:11:50;4.43;;;4.43;;
80115;SDS011;69423;47.608;19.366;2023-07-31T02:12:21;4.37;;;4.37;;
80115;SDS011;69423;47.608;19.366;2023-07-31T02:12:52;4.87;;;4.87;;
80115;SDS011;69423;47.608;19.366;2023-07-31T02:13:23;4.70;;;4.70;;
80115;SDS011;69423;47.608;19.366;2023-07-31T02:13:54;4.70;;;4.70;;
80115;SDS011;69423;47.608;19.366;2023-07-31T02:14:25;4.80;;;4.80;;
80115;SDS011;69423;47.608;19.366;2023-07-31T02:14:56;4.07;;;4.07;;
80115;SDS011;69423;47.608;19.366;2023-07-31T02:15:27;4.43;;;4.43;;
80115;SDS011;69423;47.608;19.366;2023-07-31T02:15:58;4.47;;;4.47;;
80115;SDS011;69423;47.608;19.366;2023-07-31T02:16:29;4.50;;;4.50;;
80115;SDS011;69423;47.608;19.366;2023-07-31T02:17:00;4.27;;;4.27;;
80115;SDS011;69423;47.608;19.366;2023-07-31T02:17:31;4.40;;;4.40;;
80115;SDS011;69423;47.608;19.366;2023-07-31T02:18:02;4.07;;;4.07;;
80115;SDS011;69423;47.608;19.366;2023-07-31T02:18:33;4.03;;;4.03;;
80115;SDS011;69423;47.608;19.366;2023-07-31T02:19:04;4.47;;;4.47;;
80115;SDS011;69423;47.608;19.366;2023-07-31T02:19:35;4.57;;;4.57;;
80115;SDS011;69423;47.608;19.366;2023-07-31T02:20:06;4.93;;;4.93;;
80115;SDS011;69423;47.608;19.366;2023-07-31T02:20:38;4.67;;;4.67;;
80115;SDS011;69423;47.608;19.366;2023-07-31T02:21:09;4.63;;;4.63;;
80115;SDS011;69423;47.608;19.366;2023-07-31T02:21:40;4.83;;;4.83;;
80115;SDS011;69423;47.608;19.366;2023-07-31T02:22:11;4.63;;;4.63;;
80115;SDS011;69423;47.608;19.366;2023-07-31T02:22:42;4.33;;;4.33;;
80115;SDS011;69423;47.608;19.366;2023-07-31T02:23:13;4.60;;;4.60;;
80115;SDS011;69423;47.608;19.366;2023-07-31T02:23:44;4.37;;;4.37;;
80115;SDS011;69423;47.608;19.366;2023-07-31T02:24:15;4.83;;;4.83;;
80115;SDS011;69423;47.608;19.366;2023-07-31T02:24:46;4.50;;;4.50;;
80115;SDS011;69423;47.608;19.366;2023-07-31T02:25:17;5.03;;;5.03;;
80115;SDS011;69423;47.608;19.366;2023-07-31T02:25:48;4.70;;;4.70;;
80115;SDS011;69423;47.608;19.366;2023-07-31T02:26:19;4.80;;;4.80;;
80115;SDS011;69423;47.608;19.366;2023-07-31T02:26:51;4.57;;;4.57;;
80115;SDS011;69423;47.608;19.366;2023-07-31T02:27:22;4.70;;;4.70;;
80115;SDS011;69423;47.608;19.366;2023-07-31T02:27:54;4.43;;;4.43;;
80115;SDS011;69423;47.608;19.366;2023-07-31T02:28:25;4.90;;;4.90;;
80115;SDS011;69423;47.608;19.366;2023-07-31T02:28:56;5.30;;;5.30;;
80115;SDS011;69423;47.608;19.366;2023-07-31T02:29:27;5.10;;;5.10;;
80115;SDS011;69423;47.608;19.366;2023-07-31T02:29:58;4.63;;;4.63;;
80115;SDS011;69423;47.608;19.366;2023-07-31T02:30:30;4.87;;;4.87;;
80115;SDS011;69423;47.608;19.366;2023-07-31T02:31:01;4.93;;;4.93;;
80115;SDS011;69423;47.608;19.366;2023-07-31T02:31:32;4.83;;;4.83;;
80115;SDS011;69423;47.608;19.366;2023-07-31T02:32:03;4.53;;;4.53;;
80115;SDS011;69423;47.608;19.366;2023-07-31T02:32:34;4.93;;;4.93;;
80115;SDS011;69423;47.608;19.366;2023-07-31T02:33:05;4.80;;;4.80;;
80115;SDS011;69423;47.608;19.366;2023-07-31T02:33:36;5.17;;;5.17;;
80115;SDS011;69423;47.608;19.366;2023-07-31T02:34:07;5.57;;;5.57;;
80115;SDS011;69423;47.608;19.366;2023-07-31T02:34:38;5.13;;;5.13;;
80115;SDS011;69423;47.608;19.366;2023-07-31T02:35:09;5.13;;;5.13;;
80115;SDS011;69423;47.608;19.366;2023-07-31T02:35:41;5.17;;;5.17;;
80115;SDS011;69423;47.608;19.366;2023-07-31T02:36:12;4.63;;;4.63;;
80115;SDS011;69423;47.608;19.366;2023-07-31T02:36:45;4.70;;;4.70;;
80115;SDS011;69423;47.608;19.366;2023-07-31T02:37:16;4.87;;;4.87;;
80115;SDS011;69423;47.608;19.366;2023-07-31T02:37:47;5.23;;;5.23;;
80115;SDS011;69423;47.608;19.366;2023-07-31T02:38:18;4.87;;;4.87;;
80115;SDS011;69423;47.608;19.366;2023-07-31T02:38:49;5.37;;;5.37;;
80115;SDS011;69423;47.608;19.366;2023-07-31T02:39:20;5.43;;;5.43;;
80115;SDS011;69423;47.608;19.366;2023-07-31T02:39:51;4.87;;;4.87;;
80115;SDS011;69423;47.608;19.366;2023-07-31T02:40:22;4.97;;;4.97;;
80115;SDS011;69423;47.608;19.366;2023-07-31T02:40:54;5.03;;;5.03;;
80115;SDS011;69423;47.608;19.366;2023-07-31T02:41:25;4.77;;;4.77;;
80115;SDS011;69423;47.608;19.366;2023-07-31T02:41:56;5.07;;;5.07;;
80115;SDS011;69423;47.608;19.366;2023-07-31T02:42:27;5.30;;;5.30;;
80115;SDS011;69423;47.608;19.366;2023-07-31T02:42:58;5.37;;;5.37;;
80115;SDS011;69423;47.608;19.366;2023-07-31T02:43:29;4.87;;;4.87;;
80115;SDS011;69423;47.608;19.366;2023-07-31T02:44:00;5.03;;;5.03;;
80115;SDS011;69423;47.608;19.366;2023-07-31T02:44:31;5.40;;;5.40;;
80115;SDS011;69423;47.608;19.366;2023-07-31T02:45:02;5.13;;;5.13;;
80115;SDS011;69423;47.608;19.366;2023-07-31T02:45:33;5.20;;;5.20;;
80115;SDS011;69423;47.608;19.366;2023-07-31T02:46:04;4.87;;;4.87;;
80115;SDS011;69423;47.608;19.366;2023-07-31T02:46:35;5.10;;;5.10;;
80115;SDS011;69423;47.608;19.366;2023-07-31T02:47:06;4.77;;;4.77;;
80115;SDS011;69423;47.608;19.366;2023-07-31T02:47:37;4.70;;;4.70;;
80115;SDS011;69423;47.608;19.366;2023-07-31T02:48:08;5.17;;;5.17;;
80115;SDS011;69423;47.608;19.366;2023-07-31T02:48:39;4.80;;;4.80;;
80115;SDS011;69423;47.608;19.366;2023-07-31T02:49:11;4.53;;;4.53;;
80115;SDS011;69423;47.608;19.366;2023-07-31T02:49:42;4.77;;;4.77;;
80115;SDS011;69423;47.608;19.366;2023-07-31T02:50:13;4.97;;;4.97;;
80115;SDS011;69423;47.608;19.366;2023-07-31T02:50:44;4.63;;;4.63;;
80115;SDS011;69423;47.608;19.366;2023-07-31T02:51:16;4.27;;;4.27;;
80115;SDS011;69423;47.608;19.366;2023-07-31T02:51:47;4.70;;;4.70;;
80115;SDS011;69423;47.608;19.366;2023-07-31T02:52:18;5.07;;;5.07;;
80115;SDS011;69423;47.608;19.366;2023-07-31T02:52:50;4.87;;;4.87;;
80115;SDS011;69423;47.608;19.366;2023-07-31T02:53:21;5.03;;;5.03;;
80115;SDS011;69423;47.608;19.366;2023-07-31T02:53:53;5.23;;;5.23;;
80115;SDS011;69423;47.608;19.366;2023-07-31T02:54:24;5.03;;;5.03;;
80115;SDS011;69423;47.608;19.366;2023-07-31T02:54:55;4.80;;;4.80;;
80115;SDS011;69423;47.608;19.366;2023-07-31T02:55:27;5.00;;;5.00;;
80115;SDS011;69423;47.608;19.366;2023-07-31T02:55:59;5.13;;;5.13;;
80115;SDS011;69423;47.608;19.366;2023-07-31T02:56:30;4.70;;;4.70;;
80115;SDS011;69423;47.608;19.366;2023-07-31T02:57:01;4.83;;;4.83;;
80115;SDS011;69423;47.608;19.366;2023-07-31T02:57:32;5.10;;;5.10;;
80115;SDS011;69423;47.608;19.366;2023-07-31T02:58:03;5.13;;;5.13;;
80115;SDS011;69423;47.608;19.366;2023-07-31T02:58:34;5.03;;;5.03;;
80115;SDS011;69423;47.608;19.366;2023-07-31T02:59:05;4.93;;;4.93;;
80115;SDS011;69423;47.608;19.366;2023-07-31T02:59:36;4.63;;;4.63;;
80115;SDS011;69423;47.608;19.366;2023-07-31T03:00:07;4.53;;;4.53;;
80115;SDS011;69423;47.608;19.366;2023-07-31T03:00:41;4.87;;;4.87;;
80115;SDS011;69423;47.608;19.366;2023-07-31T03:01:13;4.87;;;4.87;;
80115;SDS011;69423;47.608;19.366;2023-07-31T03:01:44;4.80;;;4.80;;
80115;SDS011;69423;47.608;19.366;2023-07-31T03:02:15;4.63;;;4.63;;
80115;SDS011;69423;47.608;19.366;2023-07-31T03:02:46;4.83;;;4.83;;
80115;SDS011;69423;47.608;19.366;2023-07-31T03:03:17;4.87;;;4.87;;
80115;SDS011;69423;47.608;19.366;2023-07-31T03:03:48;4.50;;;4.50;;
80115;SDS011;69423;47.608;19.366;2023-07-31T03:04:19;4.37;;;4.37;;
80115;SDS011;69423;47.608;19.366;2023-07-31T03:04:50;4.57;;;4.57;;
80115;SDS011;69423;47.608;19.366;2023-07-31T03:05:21;5.00;;;5.00;;
80115;SDS011;69423;47.608;19.366;2023-07-31T03:05:52;4.53;;;4.53;;
80115;SDS011;69423;47.608;19.366;2023-07-31T03:06:23;4.87;;;4.87;;
80115;SDS011;69423;47.608;19.366;2023-07-31T03:06:55;4.90;;;4.90;;
80115;SDS011;69423;47.608;19.366;2023-07-31T03:07:26;4.73;;;4.73;;
80115;SDS011;69423;47.608;19.366;2023-07-31T03:07:57;4.77;;;4.77;;
80115;SDS011;69423;47.608;19.366;2023-07-31T03:08:28;5.27;;;5.27;;
80115;SDS011;69423;47.608;19.366;2023-07-31T03:08:59;5.13;;;5.13;;
80115;SDS011;69423;47.608;19.366;2023-07-31T03:09:30;5.07;;;5.07;;
80115;SDS011;69423;47.608;19.366;2023-07-31T03:10:01;5.33;;;5.33;;
80115;SDS011;69423;47.608;19.366;2023-07-31T03:10:32;4.77;;;4.77;;
80115;SDS011;69423;47.608;19.366;2023-07-31T03:11:03;4.57;;;4.57;;
80115;SDS011;69423;47.608;19.366;2023-07-31T03:11:34;4.60;;;4.60;;
80115;SDS011;69423;47.608;19.366;2023-07-31T03:12:05;4.47;;;4.47;;
80115;SDS011;69423;47.608;19.366;2023-07-31T03:12:36;5.10;;;5.10;;
80115;SDS011;69423;47.608;19.366;2023-07-31T03:13:07;5.13;;;5.13;;
80115;SDS011;69423;47.608;19.366;2023-07-31T03:13:38;4.97;;;4.97;;
80115;SDS011;69423;47.608;19.366;2023-07-31T03:14:09;5.33;;;5.33;;
80115;SDS011;69423;47.608;19.366;2023-07-31T03:14:40;5.33;;;5.33;;
80115;SDS011;69423;47.608;19.366;2023-07-31T03:15:11;4.73;;;4.73;;